< < Back
Terminal Aerodrome Forecast


Current Version              Previous Versions:   1  2  3  4  5  6  7  8  9  

Terminal Aerodrome Forecast

374
FTAK31 PAJN 282323
TAFAHN
TAF
PAHN 282323Z 2900/2924 30011G15KT P6SM -RA SCT040 OVC070
     FM290400 30009KT P6SM -SHRA SCT020 OVC035
     FM290900 30009KT P6SM VCSH SCT020 OVC040
     FM291400 30012KT P6SM SCT025 OVC040
     FM291800 30008KT P6SM -SHRA SCT025 OVC035
      AMD LTD TO CLD VIS AND WIND=



Latest METAR

853
SAUS70 KWBC 290900
MTRAHN
METAR KAHN 290851Z AUTO 00000KT 6SM BR CLR 19/18 A3016 RMK AO2 SLP207
T01940183 56006


USA.gov is the U.S. government's official web portal to all federal, state and local government web resources and services.